Time;durP1;ratioP1;P1;durP2;ratioP2;P2;SDS_P1;SDS_P2;PMS_P1;PMS_P2;Temp;Humidity;BMP_temperature;BMP_pressure;BME280_temperature;BME280_humidity;BME280_pressure;Samples;Min_cycle;Max_cycle;Signal;HPM_P1;HPM_P2
2023/05/09 00:03:54;;;;;;;22.23;16.07;;;16.80;99.90;;;;;;21164845;28;20236;-73
2023/05/09 00:13:57;;;;;;;23.50;16.20;;;16.80;99.90;;;;;;21166542;28;20323;-72
2023/05/09 00:23:59;;;;;;;22.03;15.33;;;16.70;99.90;;;;;;21165910;28;20242;-72
2023/05/09 00:34:01;;;;;;;20.17;14.93;;;16.60;99.90;;;;;;21165078;28;20661;-71
2023/05/09 00:44:04;;;;;;;17.00;13.70;;;16.50;99.90;;;;;;21164990;28;20586;-77
2023/05/09 00:54:07;;;;;;;15.77;13.17;;;16.40;99.90;;;;;;21163646;28;20238;-72
2023/05/09 01:04:11;;;;;;;18.93;12.80;;;16.30;99.90;;;;;;21163061;28;20237;-72
2023/05/09 01:14:55;;;;;;;17.20;13.13;;;16.20;99.90;;;;;;21168025;28;20207;-76
2023/05/09 01:25:04;;;;;;;12.00;9.77;;;16.20;99.90;;;;;;21179974;28;20240;-74
2023/05/09 01:35:09;;;;;;;13.40;10.23;;;16.20;99.90;;;;;;21180454;28;20664;-75
2023/05/09 01:45:12;;;;;;;14.87;9.83;;;16.10;99.90;;;;;;21185629;28;20572;-71
2023/05/09 01:55:16;;;;;;;12.47;10.27;;;16.00;99.90;;;;;;21178066;28;20606;-71
2023/05/09 02:05:18;;;;;;;14.27;9.87;;;15.80;99.80;;;;;;21176402;28;20277;-71
2023/05/09 02:15:21;;;;;;;11.40;10.20;;;15.60;99.90;;;;;;21176250;28;20206;-71
2023/05/09 02:25:23;;;;;;;11.37;9.93;;;15.50;99.90;;;;;;21174052;28;20234;-71
2023/05/09 02:35:26;;;;;;;11.30;9.13;;;15.50;99.90;;;;;;21174114;28;20238;-72
2023/05/09 02:45:27;;;;;;;10.43;8.80;;;15.40;99.90;;;;;;21173605;28;20286;-78
2023/05/09 02:55:29;;;;;;;12.17;8.97;;;15.30;99.90;;;;;;21172280;28;20242;-78
2023/05/09 03:05:32;;;;;;;10.77;9.27;;;15.20;99.60;;;;;;21153631;28;20230;-77
2023/05/09 03:15:33;;;;;;;14.27;9.53;;;15.20;99.60;;;;;;21171620;28;20220;-76
2023/05/09 03:25:35;;;;;;;12.87;9.33;;;15.10;99.40;;;;;;21170179;28;20732;-77
2023/05/09 03:35:37;;;;;;;11.90;8.90;;;15.00;99.50;;;;;;21169353;28;20210;-77
2023/05/09 03:45:39;;;;;;;14.07;9.57;;;14.90;99.70;;;;;;21150768;28;20635;-77
2023/05/09 03:55:40;;;;;;;18.53;10.43;;;14.90;99.60;;;;;;21167472;28;20226;-72
2023/05/09 04:05:42;;;;;;;10.80;9.03;;;14.90;99.60;;;;;;21167105;28;20237;-76
2023/05/09 04:15:44;;;;;;;12.40;9.47;;;15.00;99.50;;;;;;21166807;28;20603;-70
2023/05/09 04:25:45;;;;;;;11.20;10.00;;;15.00;99.50;;;;;;21165388;28;20503;-72
2023/05/09 04:35:47;;;;;;;11.80;9.63;;;15.20;99.30;;;;;;21164645;28;20657;-74
2023/05/09 04:45:49;;;;;;;14.87;9.23;;;15.20;99.10;;;;;;21164619;28;20633;-77
2023/05/09 04:55:50;;;;;;;11.37;9.53;;;15.30;98.90;;;;;;21162707;28;20728;-77
2023/05/09 05:05:52;;;;;;;12.67;10.47;;;15.40;98.70;;;;;;21163528;28;20240;-78
2023/05/09 05:15:55;;;;;;;16.13;10.83;;;15.50;98.30;;;;;;21163248;28;20574;-71
2023/05/09 05:25:57;;;;;;;12.73;10.93;;;15.60;97.80;;;;;;21168024;28;20242;-71
2023/05/09 05:35:58;;;;;;;14.23;10.93;;;15.90;96.40;;;;;;21144827;28;20206;-71
2023/05/09 05:46:00;;;;;;;16.20;11.57;;;15.90;96.40;;;;;;21162163;28;20707;-71
2023/05/09 05:56:02;;;;;;;13.33;11.43;;;16.20;95.90;;;;;;21160350;28;20238;-76
2023/05/09 06:06:04;;;;;;;21.93;11.80;;;16.20;95.40;;;;;;21169655;28;20231;-75
2023/05/09 06:16:07;;;;;;;12.50;10.67;;;16.30;95.30;;;;;;21174994;28;20210;-72
2023/05/09 06:26:21;;;;;;;14.03;9.87;;;16.70;95.00;;;;;;21172142;28;20265;-73
2023/05/09 06:36:22;;;;;;;12.33;9.00;;;17.20;93.60;;;;;;21173187;28;20255;-72
2023/05/09 06:46:25;;;;;;;10.13;7.80;;;17.70;91.50;;;;;;21173100;28;20641;-76
2023/05/09 06:56:27;;;;;;;9.73;7.23;;;17.90;88.20;;;;;;21171376;28;20234;-76
2023/05/09 07:06:29;;;;;;;7.13;6.27;;;17.70;81.40;;;;;;21170753;28;20358;-73
2023/05/09 07:16:30;;;;;;;8.50;5.90;;;17.60;78.50;;;;;;21170220;28;20211;-71
2023/05/09 07:26:34;;;;;;;7.83;6.57;;;17.40;75.40;;;;;;21169485;28;20318;-71
2023/05/09 07:36:36;;;;;;;7.27;6.27;;;17.30;74.30;;;;;;21168487;28;20212;-72
2023/05/09 07:46:40;;;;;;;10.67;6.40;;;17.40;75.00;;;;;;21167883;28;20297;-72
2023/05/09 07:56:42;;;;;;;9.57;6.60;;;18.00;74.60;;;;;;21166976;28;20221;-72
2023/05/09 08:06:44;;;;;;;10.67;6.53;;;18.20;74.50;;;;;;21165533;28;20241;-74
2023/05/09 08:16:45;;;;;;;8.00;6.00;;;18.80;73.90;;;;;;21166071;28;20202;-72
2023/05/09 08:26:47;;;;;;;8.33;5.67;;;19.20;72.50;;;;;;21164469;28;20263;-74
2023/05/09 08:36:49;;;;;;;18.37;6.53;;;19.50;70.90;;;;;;21163594;28;20272;-72
2023/05/09 08:46:57;;;;;;;12.10;5.90;;;19.60;69.80;;;;;;21163454;28;20260;-73
2023/05/09 08:57:00;;;;;;;10.93;5.50;;;19.90;68.70;;;;;;21162754;28;20686;-72
2023/05/09 09:07:04;;;;;;;10.63;5.93;;;20.20;67.50;;;;;;21162852;28;20275;-72
2023/05/09 09:17:08;;;;;;;7.57;5.43;;;20.70;66.00;;;;;;21162977;28;20542;-71
2023/05/09 09:27:10;;;;;;;4.43;4.00;;;20.80;63.70;;;;;;21162058;28;20241;-72
2023/05/09 09:37:22;;;;;;;8.07;4.03;;;20.80;60.30;;;;;;21169539;28;20209;-72
2023/05/09 09:47:31;;;;;;;4.67;3.50;;;20.70;58.50;;;;;;21177361;28;20248;-73
2023/05/09 09:57:37;;;;;;;4.30;3.60;;;20.80;56.80;;;;;;21181081;28;20215;-79
2023/05/09 10:07:38;;;;;;;4.90;3.50;;;20.90;55.00;;;;;;21189683;28;20708;-78
2023/05/09 10:17:40;;;;;;;4.33;3.17;;;20.90;52.30;;;;;;21181424;28;20211;-73
2023/05/09 10:27:45;;;;;;;3.27;2.77;;;21.10;50.10;;;;;;21174210;28;20241;-74
2023/05/09 10:37:47;;;;;;;5.10;3.10;;;21.30;47.80;;;;;;21173236;28;20204;-71
2023/05/09 10:47:51;;;;;;;3.73;3.10;;;21.30;48.00;;;;;;21171629;28;20241;-72
2023/05/09 10:57:53;;;;;;;5.67;2.97;;;21.50;47.40;;;;;;21172498;28;20221;-73
2023/05/09 11:08:18;;;;;;;5.40;3.00;;;21.70;47.20;;;;;;21171064;28;20234;-72
2023/05/09 11:18:20;;;;;;;3.77;2.87;;;21.90;45.80;;;;;;21170161;28;20221;-72
2023/05/09 11:28:30;;;;;;;5.17;2.87;;;22.10;46.00;;;;;;21170145;28;20715;-73
2023/05/09 11:38:42;;;;;;;4.00;2.87;;;22.30;45.30;;;;;;21169318;28;20213;-73
2023/05/09 11:48:44;;;;;;;4.97;2.60;;;22.60;43.70;;;;;;21167963;27;20664;-73
2023/05/09 11:58:51;;;;;;;5.13;2.83;;;22.90;43.40;;;;;;21207212;27;20729;-72
2023/05/09 12:08:55;;;;;;;4.17;2.70;;;23.20;42.70;;;;;;21202077;27;20234;-72
2023/05/09 12:18:57;;;;;;;3.97;2.60;;;23.30;43.40;;;;;;21199248;27;20555;-77
2023/05/09 12:28:59;;;;;;;3.17;2.27;;;23.70;43.40;;;;;;21215148;27;20238;-72
2023/05/09 12:39:00;;;;;;;3.67;2.57;;;24.00;43.10;;;;;;21163784;28;20205;-71
2023/05/09 12:49:02;;;;;;;5.90;2.87;;;24.30;42.90;;;;;;21162219;28;20238;-77
2023/05/09 12:59:09;;;;;;;7.07;2.67;;;24.40;42.60;;;;;;21162939;28;20202;-78
2023/05/09 13:09:11;;;;;;;3.60;2.23;;;24.70;43.10;;;;;;21162156;28;20722;-72
2023/05/09 13:19:13;;;;;;;3.90;2.63;;;24.90;43.20;;;;;;21161705;28;20205;-71
2023/05/09 13:29:15;;;;;;;3.17;2.40;;;25.20;43.20;;;;;;21161576;28;20563;-71
2023/05/09 13:39:17;;;;;;;3.33;2.37;;;25.20;42.90;;;;;;21161448;28;20198;-73
2023/05/09 13:49:18;;;;;;;5.20;2.20;;;25.50;43.00;;;;;;21161820;28;20710;-77
2023/05/09 13:59:20;;;;;;;3.17;2.20;;;26.00;42.40;;;;;;21160958;28;20247;-71
2023/05/09 14:09:22;;;;;;;6.35;2.00;;;27.00;41.60;;;;;;21141669;28;20615;-73
2023/05/09 14:19:25;;;;;;;2.25;1.90;;;28.20;41.10;;;;;;21162426;28;20213;-74
2023/05/09 14:29:27;;;;;;;4.57;2.22;;;28.90;38.30;;;;;;21220919;27;20237;-72
2023/05/09 14:39:29;;;;;;;6.30;2.20;;;29.40;38.30;;;;;;21173627;28;20653;-71
2023/05/09 14:49:31;;;;;;;4.80;1.65;;;31.90;36.20;;;;;;21172707;28;20238;-72
2023/05/09 14:59:33;;;;;;;4.75;2.58;;;36.90;31.90;;;;;;21172783;27;20198;-73
2023/05/09 15:09:37;;;;;;;2.05;1.85;;;32.70;32.10;;;;;;21212009;27;20261;-74
2023/05/09 15:19:40;;;;;;;1.80;1.60;;;34.20;30.70;;;;;;21211903;27;20230;-71
2023/05/09 15:29:43;;;;;;;2.95;1.75;;;32.10;31.80;;;;;;21208228;27;20229;-72
2023/05/09 15:39:45;;;;;;;3.35;1.90;;;29.30;34.50;;;;;;21203403;27;20609;-72
2023/05/09 15:49:46;;;;;;;5.03;1.80;;;28.60;36.40;;;;;;21196412;27;20283;-73
2023/05/09 15:59:48;;;;;;;3.20;1.92;;;28.60;36.40;;;;;;21167537;28;20205;-74
2023/05/09 16:09:50;;;;;;;2.40;1.90;;;28.40;36.70;;;;;;21165052;28;20287;-73
2023/05/09 16:19:51;;;;;;;5.75;1.90;;;30.00;35.70;;;;;;21165811;28;20255;-78
2023/05/09 16:29:53;;;;;;;6.40;2.28;;;29.80;34.70;;;;;;21165456;28;20238;-78
2023/05/09 16:39:56;;;;;;;8.63;2.22;;;28.10;36.40;;;;;;21164771;28;20661;-78
2023/05/09 16:49:58;;;;;;;3.58;2.10;;;26.90;38.40;;;;;;21145897;28;20712;-73
2023/05/09 17:00:00;;;;;;;8.03;2.10;;;26.40;40.30;;;;;;21164250;28;20209;-77
2023/05/09 17:10:02;;;;;;;6.23;2.10;;;25.70;41.00;;;;;;21164322;28;20317;-75
2023/05/09 17:20:05;;;;;;;8.23;1.97;;;25.00;42.00;;;;;;21163584;28;20206;-72
2023/05/09 17:30:07;;;;;;;4.50;2.00;;;24.50;43.40;;;;;;21163252;28;20240;-76
2023/05/09 17:40:09;;;;;;;2.33;2.03;;;23.90;43.90;;;;;;21160526;28;20251;-75
2023/05/09 17:50:15;;;;;;;4.67;2.37;;;23.40;44.60;;;;;;21143389;28;20245;-76
2023/05/09 18:00:18;;;;;;;2.63;2.30;;;23.00;45.40;;;;;;21170898;28;20202;-76
2023/05/09 18:10:23;;;;;;;4.37;2.60;;;22.70;47.40;;;;;;21174355;28;20303;-75
2023/05/09 18:20:24;;;;;;;4.33;2.47;;;22.50;47.90;;;;;;21176201;28;20219;-73
2023/05/09 18:30:26;;;;;;;5.13;2.57;;;22.30;49.10;;;;;;21194745;27;20241;-73
2023/05/09 18:40:28;;;;;;;6.33;2.70;;;22.10;50.80;;;;;;21218841;27;20256;-72
2023/05/09 18:50:30;;;;;;;3.10;2.57;;;21.80;52.10;;;;;;21206618;27;21282;-71
2023/05/09 19:00:33;;;;;;;2.70;2.40;;;21.80;52.60;;;;;;21214847;27;20213;-69
2023/05/09 19:10:36;;;;;;;4.20;2.10;;;21.60;53.10;;;;;;21210593;27;20318;-72
2023/05/09 19:20:38;;;;;;;2.30;2.00;;;21.40;55.00;;;;;;21201049;27;20255;-72
2023/05/09 19:30:40;;;;;;;4.33;1.50;;;21.30;55.60;;;;;;21214112;27;20232;-72
2023/05/09 19:40:41;;;;;;;1.30;1.20;;;21.10;56.60;;;;;;21207541;27;20292;-71
2023/05/09 19:50:44;;;;;;;4.97;1.33;;;21.00;56.70;;;;;;21208222;27;20294;-70
2023/05/09 20:00:47;;;;;;;2.53;1.20;;;20.80;58.70;;;;;;21210147;27;20573;-71
2023/05/09 20:10:48;;;;;;;2.10;1.87;;;20.50;60.80;;;;;;21206226;27;20287;-73
2023/05/09 20:20:50;;;;;;;3.10;2.67;;;20.10;66.40;;;;;;21189092;27;20702;-73
2023/05/09 20:30:52;;;;;;;3.00;2.80;;;19.50;75.10;;;;;;21165007;28;20838;-73
2023/05/09 20:40:54;;;;;;;6.20;2.73;;;18.90;86.40;;;;;;21167020;28;20210;-73
2023/05/09 20:50:55;;;;;;;3.17;2.60;;;18.30;93.10;;;;;;21166609;28;20275;-71
2023/05/09 21:00:57;;;;;;;3.23;2.50;;;18.10;96.20;;;;;;21163749;28;20208;-72
2023/05/09 21:10:59;;;;;;;2.50;2.30;;;17.80;97.40;;;;;;21163335;28;20323;-72
2023/05/09 21:21:04;;;;;;;2.73;2.30;;;17.70;98.60;;;;;;21162327;28;20552;-71
2023/05/09 21:31:06;;;;;;;2.63;1.90;;;17.60;99.10;;;;;;21165168;28;20300;-73
2023/05/09 21:41:11;;;;;;;2.90;2.10;;;17.60;99.40;;;;;;21179233;28;20300;-72
2023/05/09 21:51:14;;;;;;;2.87;2.20;;;17.60;99.80;;;;;;21177756;28;20235;-72
2023/05/09 22:01:16;;;;;;;2.53;1.90;;;17.60;99.90;;;;;;21177402;28;20213;-72
2023/05/09 22:11:18;;;;;;;2.50;1.90;;;17.60;99.90;;;;;;21176521;28;20244;-72
2023/05/09 22:21:20;;;;;;;2.50;2.20;;;17.50;99.90;;;;;;21175549;28;20212;-72
2023/05/09 22:31:22;;;;;;;2.37;1.90;;;17.60;99.90;;;;;;21174919;28;20291;-75
2023/05/09 22:41:24;;;;;;;2.00;1.80;;;17.60;99.90;;;;;;21173245;28;20299;-72
2023/05/09 22:51:26;;;;;;;3.83;2.80;;;17.50;99.90;;;;;;21172842;28;20639;-74
2023/05/09 23:01:28;;;;;;;2.63;1.93;;;17.50;99.90;;;;;;21172895;28;20214;-75
2023/05/09 23:11:30;;;;;;;2.83;2.17;;;17.50;99.90;;;;;;21172083;28;20241;-75
2023/05/09 23:21:31;;;;;;;2.20;2.00;;;17.40;99.90;;;;;;21171121;28;20225;-77
2023/05/09 23:31:34;;;;;;;4.07;2.23;;;17.30;99.90;;;;;;21170134;28;20235;-74
2023/05/09 23:41:35;;;;;;;1.90;1.70;;;17.30;99.90;;;;;;21169651;28;20207;-74
2023/05/09 23:51:37;;;;;;;4.27;1.50;;;17.10;99.90;;;;;;21168587;28;20234;-78
